Time;durP1;ratioP1;P1;durP2;ratioP2;P2;SDS_P1;SDS_P2;PMS_P1;PMS_P2;Temp;Humidity;BMP_temperature;BMP_pressure;BME280_temperature;BME280_humidity;BME280_pressure;Samples;Min_cycle;Max_cycle;Signal;HPM_P1;HPM_P2
2022/10/05 00:01:55;;;;;;;0.00;0.00;;;;;;;;;;5077304;28;20036;-87
2022/10/05 00:04:22;;;;;;;0.40;0.00;;;;;;;;;;5094033;28;20047;-87
2022/10/05 00:07:02;;;;;;;0.00;0.00;;;;;;;;;;5094152;28;20044;-86
2022/10/05 00:09:30;;;;;;;0.00;0.00;;;;;;;;;;5093928;28;20048;-87
2022/10/05 00:11:56;;;;;;;0.00;0.00;;;;;;;;;;5077311;28;20063;-88
2022/10/05 00:14:29;;;;;;;0.00;0.00;;;;;;;;;;5093904;28;20067;-87
2022/10/05 00:16:56;;;;;;;0.80;0.25;;;;;;;;;;5077130;28;20531;-87
2022/10/05 00:19:30;;;;;;;0.00;0.00;;;;;;;;;;5077228;28;20493;-86
2022/10/05 00:21:58;;;;;;;0.00;0.00;;;;;;;;;;5093801;28;20040;-87
2022/10/05 00:24:24;;;;;;;0.00;0.00;;;;;;;;;;5076715;28;20434;-87
2022/10/05 00:26:50;;;;;;;0.00;0.00;;;;;;;;;;5093544;28;20044;-88
2022/10/05 00:29:23;;;;;;;0.00;0.00;;;;;;;;;;5093741;28;20043;-88
2022/10/05 00:31:49;;;;;;;0.00;0.00;;;;;;;;;;5076681;28;20093;-87
2022/10/05 00:34:16;;;;;;;0.00;0.00;;;;;;;;;;5076690;28;20042;-88
2022/10/05 00:36:42;;;;;;;0.00;0.00;;;;;;;;;;5093475;28;20479;-87
2022/10/05 00:39:08;;;;;;;0.00;0.00;;;;;;;;;;5094037;28;20497;-87
2022/10/05 00:41:58;;;;;;;0.00;0.00;;;;;;;;;;5076414;28;20514;-88
2022/10/05 00:44:33;;;;;;;0.00;0.00;;;;;;;;;;5076731;28;20094;-87
2022/10/05 00:47:18;;;;;;;0.00;0.00;;;;;;;;;;5076670;28;20043;-87
2022/10/05 00:49:44;;;;;;;0.00;0.00;;;;;;;;;;5093225;28;20051;-87
2022/10/05 00:52:10;;;;;;;0.00;0.00;;;;;;;;;;5093254;28;20039;-87
2022/10/05 00:54:44;;;;;;;0.00;0.00;;;;;;;;;;5076324;28;20132;-87
2022/10/05 00:57:26;;;;;;;0.00;0.00;;;;;;;;;;5092969;28;20032;-87
2022/10/05 01:00:07;;;;;;;0.00;0.00;;;;;;;;;;5093071;28;20044;-87
2022/10/05 01:02:59;;;;;;;0.00;0.00;;;;;;;;;;5076246;28;20067;-87
2022/10/05 01:05:28;;;;;;;0.00;0.00;;;;;;;;;;5084944;28;20047;-88
2022/10/05 01:08:13;;;;;;;0.00;0.00;;;;;;;;;;5093151;28;20085;-88
2022/10/05 01:11:02;;;;;;;0.00;0.00;;;;;;;;;;5075617;28;20040;-85
2022/10/05 01:13:40;;;;;;;0.00;0.00;;;;;;;;;;5075632;28;20135;-86
2022/10/05 01:16:10;;;;;;;0.00;0.00;;;;;;;;;;5092660;28;20051;-85
2022/10/05 01:18:51;;;;;;;0.00;0.00;;;;;;;;;;5075795;28;20479;-86
2022/10/05 01:21:20;;;;;;;0.00;0.00;;;;;;;;;;5092383;28;20036;-88
2022/10/05 01:23:55;;;;;;;0.00;0.00;;;;;;;;;;5092657;28;20036;-87
2022/10/05 01:26:21;;;;;;;0.00;0.00;;;;;;;;;;5092323;28;20054;-87
2022/10/05 01:28:51;;;;;;;0.00;0.00;;;;;;;;;;5092768;28;20048;-88
2022/10/05 01:31:20;;;;;;;0.00;0.00;;;;;;;;;;5076496;28;20032;-87
2022/10/05 01:33:48;;;;;;;0.00;0.00;;;;;;;;;;5075811;28;20086;-88
2022/10/05 01:36:18;;;;;;;0.00;0.00;;;;;;;;;;5074788;28;20044;-87
2022/10/05 01:38:57;;;;;;;0.00;0.00;;;;;;;;;;5075772;28;20071;-88
2022/10/05 01:41:32;;;;;;;0.00;0.00;;;;;;;;;;5092475;28;20131;-89
2022/10/05 01:44:19;;;;;;;0.00;0.00;;;;;;;;;;5075342;28;20032;-88
2022/10/05 01:46:58;;;;;;;0.00;0.00;;;;;;;;;;5092338;28;20039;-88
2022/10/05 01:49:34;;;;;;;0.00;0.00;;;;;;;;;;5092404;28;20384;-89
2022/10/05 01:52:09;;;;;;;0.00;0.00;;;;;;;;;;5092011;28;20441;-90
2022/10/05 01:54:49;;;;;;;0.00;0.00;;;;;;;;;;5091919;28;20040;-88
2022/10/05 01:57:24;;;;;;;0.00;0.00;;;;;;;;;;5075435;28;20040;-88
2022/10/05 01:59:50;;;;;;;0.00;0.00;;;;;;;;;;5075173;28;20046;-89
2022/10/05 02:02:17;;;;;;;0.00;0.00;;;;;;;;;;5091797;28;20044;-88
2022/10/05 02:04:47;;;;;;;0.00;0.00;;;;;;;;;;5074921;28;20044;-89
2022/10/05 02:07:16;;;;;;;0.00;0.00;;;;;;;;;;5075139;28;20368;-87
2022/10/05 02:09:54;;;;;;;0.00;0.00;;;;;;;;;;5092423;28;20050;-89
2022/10/05 02:12:22;;;;;;;0.00;0.00;;;;;;;;;;5092040;28;20040;-89
2022/10/05 02:14:49;;;;;;;0.00;0.00;;;;;;;;;;5075367;28;20463;-88
2022/10/05 02:17:18;;;;;;;0.00;0.00;;;;;;;;;;5075080;28;20101;-88
2022/10/05 02:19:48;;;;;;;0.00;0.00;;;;;;;;;;5092514;28;20502;-88
2022/10/05 02:22:34;;;;;;;0.00;0.00;;;;;;;;;;5092190;28;20115;-88
2022/10/05 02:25:02;;;;;;;0.00;0.00;;;;;;;;;;5091721;28;20047;-87
2022/10/05 02:27:33;;;;;;;0.00;0.00;;;;;;;;;;5092000;28;20074;-88
2022/10/05 02:30:01;;;;;;;0.00;0.00;;;;;;;;;;5092630;28;20513;-88
2022/10/05 02:32:29;;;;;;;0.00;0.00;;;;;;;;;;5092061;28;20134;-89
2022/10/05 02:35:00;;;;;;;0.00;0.00;;;;;;;;;;5092199;28;20040;-88
2022/10/05 02:37:44;;;;;;;0.00;0.00;;;;;;;;;;5092192;28;20090;-88
2022/10/05 02:40:22;;;;;;;0.00;0.00;;;;;;;;;;5092325;28;20047;-88
2022/10/05 02:43:03;;;;;;;0.00;0.00;;;;;;;;;;5091989;28;20040;-88
2022/10/05 02:45:29;;;;;;;0.00;0.00;;;;;;;;;;5092088;28;20043;-88
2022/10/05 02:48:04;;;;;;;0.20;0.00;;;;;;;;;;5095162;28;20044;-89
2022/10/05 02:50:36;;;;;;;0.00;0.00;;;;;;;;;;5079315;28;20040;-88
2022/10/05 02:53:08;;;;;;;0.00;0.00;;;;;;;;;;5095939;28;20046;-88
2022/10/05 02:55:48;;;;;;;0.00;0.00;;;;;;;;;;5079023;28;20044;-89
2022/10/05 02:58:22;;;;;;;0.00;0.00;;;;;;;;;;5079191;28;20050;-88
2022/10/05 03:00:58;;;;;;;0.00;0.00;;;;;;;;;;5078716;28;20072;-88
2022/10/05 03:03:36;;;;;;;0.00;0.00;;;;;;;;;;5095752;28;20081;-88
2022/10/05 03:06:09;;;;;;;0.00;0.00;;;;;;;;;;5079131;28;20055;-88
2022/10/05 03:08:47;;;;;;;0.00;0.00;;;;;;;;;;5095817;28;20036;-87
2022/10/05 03:11:25;;;;;;;0.00;0.00;;;;;;;;;;5078484;28;20063;-87
2022/10/05 03:13:57;;;;;;;0.00;0.00;;;;;;;;;;5078570;28;20067;-88
2022/10/05 03:16:44;;;;;;;0.00;0.00;;;;;;;;;;5095550;28;20077;-87
2022/10/05 03:19:22;;;;;;;0.00;0.00;;;;;;;;;;5091997;28;20079;-89
2022/10/05 03:21:51;;;;;;;0.00;0.00;;;;;;;;;;5078443;28;20032;-88
2022/10/05 03:24:20;;;;;;;0.00;0.00;;;;;;;;;;5095589;28;20054;-89
2022/10/05 03:27:19;;;;;;;0.00;0.00;;;;;;;;;;5078593;28;20472;-88
2022/10/05 03:30:02;;;;;;;0.00;0.00;;;;;;;;;;5083899;28;20048;-88
2022/10/05 03:32:34;;;;;;;0.00;0.00;;;;;;;;;;5078592;28;20364;-88
2022/10/05 03:35:09;;;;;;;0.00;0.00;;;;;;;;;;5078425;28;20036;-88
2022/10/05 03:37:44;;;;;;;0.00;0.00;;;;;;;;;;5095302;28;20177;-89
2022/10/05 03:40:29;;;;;;;0.00;0.00;;;;;;;;;;5095367;28;20040;-90
2022/10/05 03:43:02;;;;;;;0.00;0.00;;;;;;;;;;5095428;28;20044;-90
2022/10/05 03:45:32;;;;;;;0.00;0.00;;;;;;;;;;5078787;28;20418;-89
2022/10/05 03:48:09;;;;;;;0.00;0.00;;;;;;;;;;5078381;28;20127;-89
2022/10/05 03:50:39;;;;;;;0.00;0.00;;;;;;;;;;5095376;28;20040;-89
2022/10/05 03:53:08;;;;;;;0.00;0.00;;;;;;;;;;5077823;28;20085;-87
2022/10/05 03:55:47;;;;;;;0.00;0.00;;;;;;;;;;5077940;28;20105;-89
2022/10/05 03:58:15;;;;;;;0.00;0.00;;;;;;;;;;5093973;28;20044;-89
2022/10/05 04:00:44;;;;;;;0.00;0.00;;;;;;;;;;5094786;28;20372;-87
2022/10/05 04:03:20;;;;;;;0.00;0.00;;;;;;;;;;5078085;28;20072;-87
2022/10/05 04:05:52;;;;;;;0.55;0.15;;;;;;;;;;5094686;28;20047;-88
2022/10/05 04:08:21;;;;;;;0.00;0.00;;;;;;;;;;5094326;28;20166;-86
2022/10/05 04:10:47;;;;;;;0.00;0.00;;;;;;;;;;5094606;28;20391;-88
2022/10/05 04:13:32;;;;;;;0.00;0.00;;;;;;;;;;5077371;28;20059;-87
2022/10/05 04:16:05;;;;;;;0.00;0.00;;;;;;;;;;5094302;28;20170;-89
2022/10/05 04:18:34;;;;;;;0.00;0.00;;;;;;;;;;5094645;28;20038;-87
2022/10/05 04:21:10;;;;;;;0.00;0.00;;;;;;;;;;5094395;28;20040;-87
2022/10/05 04:23:39;;;;;;;0.00;0.00;;;;;;;;;;5094192;28;20096;-88
2022/10/05 04:26:09;;;;;;;0.00;0.00;;;;;;;;;;5094567;28;20057;-88
2022/10/05 04:28:50;;;;;;;0.00;0.00;;;;;;;;;;5093957;28;20097;-89
2022/10/05 04:31:28;;;;;;;0.00;0.00;;;;;;;;;;5094278;28;20044;-88
2022/10/05 04:33:59;;;;;;;0.00;0.00;;;;;;;;;;5077087;28;20040;-88
2022/10/05 04:36:29;;;;;;;0.00;0.00;;;;;;;;;;5094208;28;20040;-88
2022/10/05 04:39:14;;;;;;;0.00;0.00;;;;;;;;;;5094012;28;20043;-89
2022/10/05 04:41:46;;;;;;;0.00;0.00;;;;;;;;;;5077410;28;20039;-89
2022/10/05 04:44:34;;;;;;;0.00;0.00;;;;;;;;;;5093609;28;20540;-88
2022/10/05 04:47:12;;;;;;;0.00;0.00;;;;;;;;;;5077189;28;20063;-87
2022/10/05 04:49:38;;;;;;;0.00;0.00;;;;;;;;;;5094026;28;20154;-89
2022/10/05 04:52:13;;;;;;;0.00;0.00;;;;;;;;;;5093864;28;20040;-89
2022/10/05 04:54:58;;;;;;;0.00;0.00;;;;;;;;;;5076659;28;20096;-88
2022/10/05 04:57:34;;;;;;;0.00;0.00;;;;;;;;;;5077150;28;20044;-88
2022/10/05 04:59:59;;;;;;;0.00;0.00;;;;;;;;;;5093536;28;20083;-87
2022/10/05 05:02:44;;;;;;;0.00;0.00;;;;;;;;;;5093515;28;20032;-89
2022/10/05 05:05:22;;;;;;;0.00;0.00;;;;;;;;;;5077020;28;20043;-89
2022/10/05 05:07:54;;;;;;;0.00;0.00;;;;;;;;;;5093524;28;20044;-90
2022/10/05 05:10:38;;;;;;;0.00;0.00;;;;;;;;;;5076860;28;20051;-90
2022/10/05 05:13:20;;;;;;;0.00;0.00;;;;;;;;;;5093087;28;20056;-89
2022/10/05 05:15:46;;;;;;;0.00;0.00;;;;;;;;;;5093165;28;20044;-88
2022/10/05 05:18:15;;;;;;;0.00;0.00;;;;;;;;;;5093235;28;20096;-90
2022/10/05 05:20:50;;;;;;;0.00;0.00;;;;;;;;;;5093211;28;20035;-88
2022/10/05 05:23:38;;;;;;;0.00;0.00;;;;;;;;;;5093490;28;20036;-88
2022/10/05 05:26:23;;;;;;;0.00;0.00;;;;;;;;;;5076781;28;20102;-88
2022/10/05 05:28:50;;;;;;;0.00;0.00;;;;;;;;;;5093018;28;20090;-90
2022/10/05 05:31:23;;;;;;;0.00;0.00;;;;;;;;;;5093330;28;20528;-89
2022/10/05 05:33:56;;;;;;;0.00;0.00;;;;;;;;;;5093134;28;20048;-88
2022/10/05 05:36:28;;;;;;;0.00;0.00;;;;;;;;;;5093402;28;20051;-91
2022/10/05 05:39:03;;;;;;;0.00;0.00;;;;;;;;;;5093107;28;20123;-88
2022/10/05 05:41:29;;;;;;;;;;;;;;;;;;5076727;28;20080;-88
2022/10/05 05:43:55;;;;;;;;;;;;;;;;;;5076049;28;20396;-87
2022/10/05 05:46:21;;;;;;;0.00;0.00;;;;;;;;;;5075912;28;19941;-87
2022/10/05 05:48:49;;;;;;;0.00;0.00;;;;;;;;;;5092721;28;20040;-88
2022/10/05 05:51:15;;;;;;;0.00;0.00;;;;;;;;;;5093796;28;20059;-90
2022/10/05 05:53:43;;;;;;;0.00;0.00;;;;;;;;;;5075788;28;20503;-90
2022/10/05 05:56:11;;;;;;;0.00;0.00;;;;;;;;;;5092559;28;20522;-91
2022/10/05 05:58:43;;;;;;;0.00;0.00;;;;;;;;;;5067391;28;20096;-90
2022/10/05 06:01:20;;;;;;;0.00;0.00;;;;;;;;;;5079864;28;20067;-88
2022/10/05 06:03:49;;;;;;;0.00;0.00;;;;;;;;;;5072691;28;20050;-90
2022/10/05 06:06:16;;;;;;;0.00;0.00;;;;;;;;;;5055320;28;20119;-90
2022/10/05 06:08:45;;;;;;;0.00;0.00;;;;;;;;;;5088010;28;20040;-91
2022/10/05 06:11:11;;;;;;;0.00;0.00;;;;;;;;;;5065676;28;20050;-89
2022/10/05 06:13:41;;;;;;;0.00;0.00;;;;;;;;;;5075960;28;20055;-89
2022/10/05 06:16:10;;;;;;;0.00;0.00;;;;;;;;;;5076518;28;20114;-89
2022/10/05 06:18:37;;;;;;;0.00;0.00;;;;;;;;;;5072075;28;20036;-87
2022/10/05 06:21:07;;;;;;;0.00;0.00;;;;;;;;;;5054575;28;20089;-89
2022/10/05 06:23:45;;;;;;;0.00;0.00;;;;;;;;;;5071827;28;20033;-88
2022/10/05 06:26:14;;;;;;;0.00;0.00;;;;;;;;;;5061190;28;20136;-88
2022/10/05 06:28:41;;;;;;;0.00;0.00;;;;;;;;;;5088462;28;20044;-89
2022/10/05 06:31:06;;;;;;;0.00;0.00;;;;;;;;;;5075884;28;20047;-89
2022/10/05 06:33:32;;;;;;;0.00;0.00;;;;;;;;;;5071517;28;20048;-89
2022/10/05 06:35:58;;;;;;;0.47;0.10;;;;;;;;;;5065857;28;20053;-90
2022/10/05 06:38:34;;;;;;;0.00;0.00;;;;;;;;;;5086193;28;20043;-89
2022/10/05 06:41:06;;;;;;;0.00;0.00;;;;;;;;;;5092279;28;20093;-90
2022/10/05 06:43:37;;;;;;;0.00;0.00;;;;;;;;;;5081852;28;20053;-89
2022/10/05 06:46:13;;;;;;;0.00;0.00;;;;;;;;;;5074405;28;20044;-89
2022/10/05 06:48:58;;;;;;;0.00;0.00;;;;;;;;;;5069046;28;20086;-89
2022/10/05 06:51:30;;;;;;;0.00;0.00;;;;;;;;;;5083843;28;20040;-90
2022/10/05 06:54:15;;;;;;;0.00;0.00;;;;;;;;;;5077551;28;20483;-89
2022/10/05 06:56:46;;;;;;;0.00;0.00;;;;;;;;;;5091329;28;20044;-89
2022/10/05 06:59:16;;;;;;;0.00;0.00;;;;;;;;;;5075047;28;20036;-90
2022/10/05 07:02:01;;;;;;;0.00;0.00;;;;;;;;;;5091769;28;20040;-89
2022/10/05 07:04:57;;;;;;;0.00;0.00;;;;;;;;;;5074699;28;20513;-89
2022/10/05 07:07:30;;;;;;;0.00;0.00;;;;;;;;;;5040152;28;20132;-89
2022/10/05 07:10:02;;;;;;;0.00;0.00;;;;;;;;;;5082969;28;20033;-90
2022/10/05 07:12:31;;;;;;;0.00;0.00;;;;;;;;;;5071727;28;20040;-89
2022/10/05 07:15:16;;;;;;;0.00;0.00;;;;;;;;;;5071059;28;20075;-89
2022/10/05 07:18:02;;;;;;;0.00;0.00;;;;;;;;;;5078636;28;20378;-89
2022/10/05 07:20:33;;;;;;;0.00;0.00;;;;;;;;;;5037006;28;20079;-90
2022/10/05 07:23:18;;;;;;;0.00;0.00;;;;;;;;;;5058525;28;20509;-89
2022/10/05 07:25:59;;;;;;;0.00;0.00;;;;;;;;;;5086919;28;20051;-89
2022/10/05 07:28:28;;;;;;;0.00;0.00;;;;;;;;;;5074985;28;20105;-88
2022/10/05 07:31:18;;;;;;;0.00;0.00;;;;;;;;;;5091503;28;20048;-86
2022/10/05 07:33:46;;;;;;;0.00;0.00;;;;;;;;;;5068339;28;20049;-84
2022/10/05 07:39:04;;;;;;;0.00;0.00;;;;;;;;;;5074488;28;20484;-86
2022/10/05 07:41:36;;;;;;;0.00;0.00;;;;;;;;;;5074390;28;20396;-87
2022/10/05 07:44:08;;;;;;;0.00;0.00;;;;;;;;;;5057503;28;20435;-86
2022/10/05 07:47:09;;;;;;;0.00;0.00;;;;;;;;;;5074514;28;20048;-86
2022/10/05 07:49:42;;;;;;;0.00;0.00;;;;;;;;;;5053549;28;20041;-87
2022/10/05 07:52:20;;;;;;;0.00;0.00;;;;;;;;;;5068120;28;20055;-86
2022/10/05 07:55:06;;;;;;;0.00;0.00;;;;;;;;;;5074052;28;20044;-85
2022/10/05 07:57:37;;;;;;;0.00;0.00;;;;;;;;;;5074108;28;20041;-89
2022/10/05 08:00:10;;;;;;;0.00;0.00;;;;;;;;;;5074006;28;20076;-86
2022/10/05 08:02:41;;;;;;;0.00;0.00;;;;;;;;;;5074791;28;20508;-81
2022/10/05 08:05:23;;;;;;;0.00;0.00;;;;;;;;;;5057761;28;20059;-86
2022/10/05 08:07:53;;;;;;;0.00;0.00;;;;;;;;;;5074039;28;20175;-86
2022/10/05 08:10:30;;;;;;;0.13;0.10;;;;;;;;;;5074011;28;20197;-86
2022/10/05 08:13:07;;;;;;;0.00;0.00;;;;;;;;;;5055754;28;20059;-86
2022/10/05 08:15:37;;;;;;;0.00;0.00;;;;;;;;;;5073456;28;20241;-86
2022/10/05 08:18:15;;;;;;;0.10;0.00;;;;;;;;;;5073947;28;20090;-87
2022/10/05 08:20:44;;;;;;;0.00;0.00;;;;;;;;;;5056886;28;20043;-86
2022/10/05 08:23:27;;;;;;;0.00;0.00;;;;;;;;;;5075091;28;20043;-85
2022/10/05 08:25:56;;;;;;;0.00;0.00;;;;;;;;;;5057059;28;20368;-85
2022/10/05 08:28:25;;;;;;;0.00;0.00;;;;;;;;;;5088339;28;20040;-86
2022/10/05 08:30:55;;;;;;;0.00;0.00;;;;;;;;;;5076683;28;20127;-86
2022/10/05 08:33:23;;;;;;;0.00;0.00;;;;;;;;;;5093740;28;20115;-86
2022/10/05 08:35:54;;;;;;;0.00;0.00;;;;;;;;;;5093455;28;20098;-85
2022/10/05 08:38:26;;;;;;;0.00;0.00;;;;;;;;;;5076651;28;20044;-85
2022/10/05 08:41:11;;;;;;;0.00;0.00;;;;;;;;;;5093325;28;20040;-86
2022/10/05 08:43:43;;;;;;;0.00;0.00;;;;;;;;;;5093734;28;20040;-85
2022/10/05 08:46:16;;;;;;;0.00;0.00;;;;;;;;;;5092627;28;20295;-85
2022/10/05 08:48:48;;;;;;;0.00;0.00;;;;;;;;;;5076835;28;20079;-86
2022/10/05 08:51:20;;;;;;;0.00;0.00;;;;;;;;;;5092498;28;20440;-85
2022/10/05 08:54:05;;;;;;;0.00;0.00;;;;;;;;;;5093093;28;20040;-86
2022/10/05 08:56:34;;;;;;;0.00;0.00;;;;;;;;;;5092977;28;20112;-85
2022/10/05 08:59:06;;;;;;;0.00;0.00;;;;;;;;;;5093140;28;20043;-85
2022/10/05 09:01:35;;;;;;;0.00;0.00;;;;;;;;;;5092832;28;20570;-86
2022/10/05 09:04:10;;;;;;;0.00;0.00;;;;;;;;;;5093160;28;20044;-86
2022/10/05 09:06:51;;;;;;;0.00;0.00;;;;;;;;;;5092775;28;20040;-86
2022/10/05 09:09:20;;;;;;;0.00;0.00;;;;;;;;;;5093011;28;20047;-86
2022/10/05 09:12:06;;;;;;;0.00;0.00;;;;;;;;;;5092934;28;20047;-86
2022/10/05 09:14:33;;;;;;;0.00;0.00;;;;;;;;;;5092500;28;20044;-86
2022/10/05 09:17:17;;;;;;;0.00;0.00;;;;;;;;;;5075634;28;20036;-86
2022/10/05 09:19:43;;;;;;;0.00;0.00;;;;;;;;;;5075957;28;20129;-86
2022/10/05 09:22:23;;;;;;;0.38;0.20;;;;;;;;;;5092285;28;20123;-86
2022/10/05 09:24:56;;;;;;;0.00;0.00;;;;;;;;;;5092742;28;20040;-86
2022/10/05 09:27:52;;;;;;;0.00;0.00;;;;;;;;;;5075944;28;20040;-85
2022/10/05 09:30:25;;;;;;;0.00;0.00;;;;;;;;;;5083733;28;20157;-85
2022/10/05 09:33:06;;;;;;;0.00;0.00;;;;;;;;;;5092441;28;20537;-85
2022/10/05 09:35:38;;;;;;;0.00;0.00;;;;;;;;;;5092242;28;20040;-87
2022/10/05 09:38:04;;;;;;;0.00;0.00;;;;;;;;;;5092348;28;20035;-87
2022/10/05 09:40:33;;;;;;;0.00;0.00;;;;;;;;;;5075478;28;20089;-86
2022/10/05 09:43:17;;;;;;;0.00;0.00;;;;;;;;;;5092355;28;20504;-86
2022/10/05 09:45:44;;;;;;;0.00;0.00;;;;;;;;;;5092054;28;20040;-86
2022/10/05 09:48:13;;;;;;;0.00;0.00;;;;;;;;;;5092181;28;20063;-86
2022/10/05 09:50:58;;;;;;;0.00;0.00;;;;;;;;;;5075207;28;20040;-86
2022/10/05 09:53:43;;;;;;;0.00;0.00;;;;;;;;;;5092080;28;20548;-86
2022/10/05 09:56:12;;;;;;;0.00;0.00;;;;;;;;;;5091261;28;20510;-86
2022/10/05 09:58:57;;;;;;;0.00;0.00;;;;;;;;;;5092119;28;20040;-87
2022/10/05 10:01:27;;;;;;;0.00;0.00;;;;;;;;;;5093473;28;20039;-89
2022/10/05 10:04:06;;;;;;;0.00;0.00;;;;;;;;;;5076009;28;20059;-88
2022/10/05 10:06:51;;;;;;;0.00;0.00;;;;;;;;;;5075434;28;20081;-88
2022/10/05 10:09:36;;;;;;;0.00;0.00;;;;;;;;;;5075969;28;20043;-87
2022/10/05 10:12:20;;;;;;;0.00;0.00;;;;;;;;;;5075803;28;20040;-91
2022/10/05 10:15:05;;;;;;;0.00;0.00;;;;;;;;;;5093044;28;20332;-92
2022/10/05 10:18:00;;;;;;;0.00;0.00;;;;;;;;;;5092954;28;20130;-90
2022/10/05 10:20:34;;;;;;;0.00;0.00;;;;;;;;;;5075757;28;20040;-89
2022/10/05 10:23:03;;;;;;;0.00;0.00;;;;;;;;;;5095359;28;20047;-93
2022/10/05 10:25:35;;;;;;;0.00;0.00;;;;;;;;;;5077673;28;20097;-90
2022/10/05 10:28:26;;;;;;;0.00;0.00;;;;;;;;;;5078778;28;20101;-92
2022/10/05 10:31:08;;;;;;;0.00;0.00;;;;;;;;;;5095441;28;20097;-89
2022/10/05 10:33:34;;;;;;;0.00;0.00;;;;;;;;;;5076682;28;20208;-90
2022/10/05 10:36:10;;;;;;;0.00;0.00;;;;;;;;;;5076286;28;20048;-90
2022/10/05 10:38:46;;;;;;;0.00;0.00;;;;;;;;;;5076195;28;20040;-90
2022/10/05 10:41:34;;;;;;;0.00;0.00;;;;;;;;;;5076156;28;20036;-92
2022/10/05 10:44:19;;;;;;;0.00;0.00;;;;;;;;;;5075521;28;20123;-90
2022/10/05 10:47:03;;;;;;;0.00;0.00;;;;;;;;;;5075582;28;20114;-90
2022/10/05 10:49:57;;;;;;;0.00;0.00;;;;;;;;;;5093713;28;20496;-94
2022/10/05 10:52:42;;;;;;;0.00;0.00;;;;;;;;;;5094242;28;20150;-94
2022/10/05 10:55:26;;;;;;;0.00;0.00;;;;;;;;;;5091580;28;20574;-86
2022/10/05 10:58:12;;;;;;;0.00;0.00;;;;;;;;;;5091781;28;20036;-90
2022/10/05 11:00:38;;;;;;;;;;;;;;;;;;5091745;28;20040;-90
2022/10/05 11:03:12;;;;;;;0.00;0.00;;;;;;;;;;5074371;28;19923;-89
2022/10/05 11:05:57;;;;;;;0.00;0.00;;;;;;;;;;5091761;28;20055;-91
2022/10/05 11:08:23;;;;;;;0.00;0.00;;;;;;;;;;5093509;28;20075;-89
2022/10/05 11:10:58;;;;;;;0.10;0.00;;;;;;;;;;5096244;28;20086;-90
2022/10/05 11:13:33;;;;;;;0.00;0.00;;;;;;;;;;5095175;28;20056;-90
2022/10/05 11:16:05;;;;;;;0.00;0.00;;;;;;;;;;5095185;28;20044;-91
2022/10/05 11:18:51;;;;;;;0.00;0.00;;;;;;;;;;5095517;28;20472;-88
2022/10/05 11:21:22;;;;;;;0.00;0.00;;;;;;;;;;5078092;28;20036;-87
2022/10/05 11:24:07;;;;;;;0.00;0.00;;;;;;;;;;5095041;28;20036;-89
2022/10/05 11:26:51;;;;;;;0.00;0.00;;;;;;;;;;5078124;28;20076;-90
2022/10/05 11:29:20;;;;;;;0.00;0.00;;;;;;;;;;5095693;28;20040;-89
2022/10/05 11:32:01;;;;;;;0.00;0.00;;;;;;;;;;5079157;28;20048;-89
2022/10/05 11:34:27;;;;;;;0.00;0.00;;;;;;;;;;5096074;28;20040;-88
2022/10/05 11:37:12;;;;;;;0.00;0.00;;;;;;;;;;5078868;28;20040;-90
2022/10/05 11:39:43;;;;;;;0.00;0.00;;;;;;;;;;5095752;28;20128;-89
2022/10/05 11:42:23;;;;;;;0.00;0.00;;;;;;;;;;5095932;28;20036;-90
2022/10/05 11:45:15;;;;;;;0.00;0.00;;;;;;;;;;5078870;28;20075;-89
2022/10/05 11:47:57;;;;;;;0.00;0.00;;;;;;;;;;5080017;28;20056;-89
2022/10/05 11:50:38;;;;;;;0.00;0.00;;;;;;;;;;5078830;28;20046;-88
2022/10/05 11:53:23;;;;;;;0.00;0.00;;;;;;;;;;5095310;28;20044;-89
2022/10/05 11:55:56;;;;;;;0.00;0.00;;;;;;;;;;5078477;28;20488;-90
2022/10/05 11:58:34;;;;;;;0.00;0.00;;;;;;;;;;5078368;28;20107;-91
2022/10/05 12:01:04;;;;;;;0.00;0.00;;;;;;;;;;5095419;28;20036;-91
2022/10/05 12:03:46;;;;;;;0.00;0.00;;;;;;;;;;5078172;28;20039;-88
2022/10/05 12:06:22;;;;;;;0.00;0.00;;;;;;;;;;5078857;28;20040;-90
2022/10/05 12:09:13;;;;;;;0.00;0.00;;;;;;;;;;5095071;28;20115;-89
2022/10/05 12:11:58;;;;;;;0.00;0.00;;;;;;;;;;5077944;28;20075;-90
2022/10/05 12:14:32;;;;;;;0.00;0.00;;;;;;;;;;5094536;28;20051;-89
2022/10/05 12:17:04;;;;;;;0.00;0.00;;;;;;;;;;5077786;28;20048;-89
2022/10/05 12:19:35;;;;;;;0.00;0.00;;;;;;;;;;5094172;28;20036;-89
2022/10/05 12:22:14;;;;;;;0.00;0.00;;;;;;;;;;5078075;28;20079;-90
2022/10/05 12:25:00;;;;;;;0.00;0.00;;;;;;;;;;5078138;28;20046;-90
2022/10/05 12:27:27;;;;;;;0.00;0.00;;;;;;;;;;5094530;28;20040;-90
2022/10/05 12:29:58;;;;;;;0.00;0.00;;;;;;;;;;5094850;28;20108;-90
2022/10/05 12:32:29;;;;;;;0.00;0.00;;;;;;;;;;5094615;28;20040;-89
2022/10/05 12:35:13;;;;;;;0.00;0.00;;;;;;;;;;5094388;28;20036;-89
2022/10/05 12:37:53;;;;;;;0.00;0.00;;;;;;;;;;5094444;28;20094;-88
2022/10/05 12:40:29;;;;;;;0.00;0.00;;;;;;;;;;5077368;28;20043;-88
2022/10/05 12:42:58;;;;;;;0.00;0.00;;;;;;;;;;5077256;28;20036;-89
2022/10/05 12:45:23;;;;;;;0.00;0.00;;;;;;;;;;5077222;28;20077;-89
2022/10/05 12:47:59;;;;;;;0.00;0.00;;;;;;;;;;5077262;28;20040;-89
2022/10/05 12:50:35;;;;;;;0.00;0.00;;;;;;;;;;5094295;28;20036;-89
2022/10/05 12:53:21;;;;;;;0.00;0.00;;;;;;;;;;5094084;28;20082;-89
2022/10/05 12:55:56;;;;;;;0.00;0.00;;;;;;;;;;5094018;28;20044;-89
2022/10/05 12:58:25;;;;;;;0.00;0.00;;;;;;;;;;5093919;28;20527;-90
2022/10/05 13:00:56;;;;;;;0.00;0.00;;;;;;;;;;5077217;28;20039;-89
2022/10/05 13:03:29;;;;;;;0.00;0.00;;;;;;;;;;5077177;28;20043;-89
2022/10/05 13:06:11;;;;;;;0.00;0.00;;;;;;;;;;5094172;28;20040;-90
2022/10/05 13:08:40;;;;;;;0.00;0.00;;;;;;;;;;5093651;28;20096;-88
2022/10/05 13:11:25;;;;;;;0.00;0.00;;;;;;;;;;5093560;28;20122;-89
2022/10/05 13:13:54;;;;;;;0.00;0.00;;;;;;;;;;5076796;28;20079;-88
2022/10/05 13:16:28;;;;;;;0.00;0.00;;;;;;;;;;5093948;28;20044;-90
2022/10/05 13:19:18;;;;;;;0.00;0.00;;;;;;;;;;5094773;28;20116;-93
2022/10/05 13:21:54;;;;;;;0.00;0.00;;;;;;;;;;5076821;28;20047;-89
2022/10/05 13:24:26;;;;;;;0.00;0.00;;;;;;;;;;5092741;28;20123;-84
2022/10/05 13:27:00;;;;;;;0.00;0.00;;;;;;;;;;5093384;28;20422;-85
2022/10/05 13:29:47;;;;;;;0.10;0.10;;;;;;;;;;5092325;28;20068;-84
2022/10/05 13:32:17;;;;;;;0.00;0.00;;;;;;;;;;5091677;28;20387;-84
2022/10/05 13:34:47;;;;;;;0.00;0.00;;;;;;;;;;5094028;28;20096;-91
2022/10/05 13:37:36;;;;;;;0.00;0.00;;;;;;;;;;5096681;28;20083;-93
2022/10/05 13:40:21;;;;;;;0.00;0.00;;;;;;;;;;5098299;28;20044;-95
2022/10/05 13:43:06;;;;;;;0.00;0.00;;;;;;;;;;5076495;28;20039;-88
2022/10/05 13:45:45;;;;;;;0.00;0.00;;;;;;;;;;5093269;28;20075;-91
2022/10/05 13:48:14;;;;;;;0.00;0.00;;;;;;;;;;5076580;28;20042;-89
2022/10/05 13:50:59;;;;;;;0.00;0.00;;;;;;;;;;5094723;28;20036;-92
2022/10/05 13:53:34;;;;;;;0.00;0.00;;;;;;;;;;5076621;28;20036;-90
2022/10/05 13:56:19;;;;;;;0.00;0.00;;;;;;;;;;5094022;28;20036;-92
2022/10/05 13:58:48;;;;;;;0.00;0.00;;;;;;;;;;5093750;28;20048;-92
2022/10/05 14:01:14;;;;;;;0.00;0.00;;;;;;;;;;5076455;28;20502;-93
2022/10/05 14:03:40;;;;;;;0.00;0.00;;;;;;;;;;5076376;28;20036;-91
2022/10/05 14:06:28;;;;;;;0.00;0.00;;;;;;;;;;5093606;28;20093;-92
2022/10/05 14:08:56;;;;;;;0.00;0.00;;;;;;;;;;5076103;28;20127;-91
2022/10/05 14:11:27;;;;;;;0.00;0.00;;;;;;;;;;5076723;28;20048;-93
2022/10/05 14:14:00;;;;;;;0.00;0.00;;;;;;;;;;5075751;28;20102;-92
2022/10/05 14:16:26;;;;;;;0.00;0.00;;;;;;;;;;5093701;28;20064;-93
2022/10/05 14:19:05;;;;;;;0.00;0.00;;;;;;;;;;5076096;28;20078;-93
2022/10/05 14:21:42;;;;;;;0.00;0.00;;;;;;;;;;5076505;28;20135;-91
2022/10/05 14:24:20;;;;;;;0.00;0.00;;;;;;;;;;5092789;28;20479;-91
2022/10/05 14:26:53;;;;;;;0.00;0.00;;;;;;;;;;5076302;28;20032;-92
2022/10/05 14:29:22;;;;;;;0.00;0.00;;;;;;;;;;5092064;28;20376;-91
2022/10/05 14:31:49;;;;;;;0.05;0.03;;;;;;;;;;5093684;28;20093;-91
2022/10/05 14:34:33;;;;;;;0.00;0.00;;;;;;;;;;5075642;28;20055;-92
2022/10/05 14:37:19;;;;;;;0.00;0.00;;;;;;;;;;5076054;28;20067;-92
2022/10/05 14:39:46;;;;;;;0.00;0.00;;;;;;;;;;5092040;28;20036;-93
2022/10/05 14:42:19;;;;;;;0.00;0.00;;;;;;;;;;5093142;28;20599;-91
2022/10/05 14:44:58;;;;;;;0.00;0.00;;;;;;;;;;5082590;28;20072;-92
2022/10/05 14:47:26;;;;;;;0.00;0.00;;;;;;;;;;5069325;28;20040;-92
2022/10/05 14:52:40;;;;;;;0.00;0.00;;;;;;;;;;5096964;28;20044;-93
2022/10/05 14:55:20;;;;;;;0.28;0.20;;;;;;;;;;5078606;28;20142;-94
2022/10/05 14:57:55;;;;;;;0.00;0.00;;;;;;;;;;5079695;28;20113;-96
2022/10/05 15:00:21;;;;;;;0.00;0.00;;;;;;;;;;5097942;28;20028;-91
2022/10/05 15:03:05;;;;;;;0.00;0.00;;;;;;;;;;5097074;28;20044;-90
2022/10/05 15:05:40;;;;;;;0.00;0.00;;;;;;;;;;5096418;28;20047;-91
2022/10/05 15:08:25;;;;;;;0.00;0.00;;;;;;;;;;5096469;28;20043;-91
2022/10/05 15:10:54;;;;;;;0.00;0.00;;;;;;;;;;5080227;28;20495;-92
2022/10/05 15:13:23;;;;;;;0.00;0.00;;;;;;;;;;5079760;28;20056;-91
2022/10/05 15:16:08;;;;;;;0.00;0.00;;;;;;;;;;5096297;28;20040;-90
2022/10/05 15:18:53;;;;;;;0.00;0.00;;;;;;;;;;5079386;28;20063;-93
2022/10/05 15:21:35;;;;;;;0.00;0.00;;;;;;;;;;5080455;28;20055;-92
2022/10/05 15:24:11;;;;;;;0.00;0.00;;;;;;;;;;5097821;28;20032;-96
2022/10/05 15:26:49;;;;;;;0.00;0.00;;;;;;;;;;5103014;28;20068;-95
2022/10/05 15:29:26;;;;;;;0.00;0.00;;;;;;;;;;5080331;28;20059;-90
2022/10/05 15:32:06;;;;;;;0.00;0.00;;;;;;;;;;5080154;28;20035;-92
2022/10/05 15:34:54;;;;;;;0.52;0.13;;;;;;;;;;5079623;28;20048;-91
2022/10/05 15:37:25;;;;;;;0.00;0.00;;;;;;;;;;5079006;28;20093;-91